createdAt,value
2018-11-29T00:00:07.403Z,18.17
2018-11-29T00:02:40.992Z,18.27
2018-11-29T00:05:14.974Z,16.77
2018-11-29T00:07:48.597Z,17.03
2018-11-29T00:10:22.218Z,18.43
2018-11-29T00:12:55.797Z,21.83
2018-11-29T00:15:29.426Z,14.97
2018-11-29T00:18:03.476Z,21.30
2018-11-29T00:20:37.056Z,18.10
2018-11-29T00:23:10.687Z,17.20
2018-11-29T00:25:44.552Z,21.43
2018-11-29T00:28:18.171Z,17.60
2018-11-29T00:30:51.776Z,17.93
2018-11-29T00:33:25.335Z,18.67
2018-11-29T00:35:58.943Z,15.00
2018-11-29T00:38:32.575Z,19.27
2018-11-29T00:41:06.582Z,23.03
2018-11-29T00:43:40.367Z,17.47
2018-11-29T00:46:13.979Z,20.03
2018-11-29T00:48:47.599Z,20.33
2018-11-29T00:51:21.192Z,20.30
2018-11-29T00:53:54.879Z,21.17
2018-11-29T00:56:28.493Z,22.53
2018-11-29T00:59:02.073Z,25.53
2018-11-29T01:01:35.784Z,23.37
2018-11-29T01:04:09.371Z,21.60
2018-11-29T01:06:43.014Z,24.00
2018-11-29T01:09:16.662Z,21.00
2018-11-29T01:11:50.342Z,24.27
2018-11-29T01:14:23.915Z,25.17
2018-11-29T01:16:57.525Z,19.63
2018-11-29T01:19:31.138Z,19.53
2018-11-29T01:22:04.783Z,24.83
2018-11-29T01:24:38.373Z,24.80
2018-11-29T01:27:11.981Z,27.97
2018-11-29T01:29:45.567Z,28.87
2018-11-29T01:32:19.200Z,27.67
2018-11-29T01:34:52.761Z,24.53
2018-11-29T01:37:26.390Z,27.60
2018-11-29T01:39:59.958Z,31.53
2018-11-29T01:42:33.586Z,28.90
2018-11-29T01:45:07.429Z,26.70
2018-11-29T01:47:41.053Z,31.27
2018-11-29T01:50:14.659Z,25.53
2018-11-29T01:52:48.305Z,25.80
2018-11-29T01:55:21.905Z,26.97
2018-11-29T01:57:55.531Z,30.00
2018-11-29T02:00:29.110Z,29.73
2018-11-29T02:03:02.722Z,31.43
2018-11-29T02:05:36.299Z,21.47
2018-11-29T02:08:09.936Z,30.47
2018-11-29T02:10:48.748Z,33.47
2018-11-29T02:13:22.352Z,40.27
2018-11-29T02:15:55.976Z,33.27
2018-11-29T02:18:29.669Z,36.23
2018-11-29T02:21:03.265Z,32.60
2018-11-29T02:23:36.943Z,30.47
2018-11-29T02:26:10.561Z,27.67
2018-11-29T02:28:47.098Z,36.97
2018-11-29T02:31:20.675Z,33.40
2018-11-29T02:33:54.347Z,33.37
2018-11-29T02:36:27.966Z,31.93
2018-11-29T02:39:01.684Z,32.37
2018-11-29T02:41:35.261Z,35.03
2018-11-29T02:44:08.865Z,29.53
2018-11-29T02:46:42.465Z,32.00
2018-11-29T02:49:16.111Z,27.97
2018-11-29T02:51:49.691Z,29.73
2018-11-29T02:54:23.309Z,33.17
2018-11-29T02:56:56.904Z,35.20
2018-11-29T02:59:30.530Z,29.47
2018-11-29T03:02:04.215Z,28.53
2018-11-29T03:04:37.832Z,37.03
2018-11-29T03:07:11.398Z,30.00
2018-11-29T03:09:44.996Z,31.00
2018-11-29T03:12:18.573Z,31.77
2018-11-29T03:14:52.189Z,38.20
2018-11-29T03:17:25.776Z,29.00
2018-11-29T03:19:59.401Z,29.53
2018-11-29T03:22:33.032Z,30.97
2018-11-29T03:25:09.504Z,26.53
2018-11-29T03:27:43.309Z,32.73
2018-11-29T03:30:18.568Z,28.33
2018-11-29T03:32:52.169Z,31.40
2018-11-29T03:35:25.826Z,31.97
2018-11-29T03:37:59.419Z,29.03
2018-11-29T03:40:33.049Z,30.67
2018-11-29T03:43:06.947Z,29.73
2018-11-29T03:45:40.528Z,33.33
2018-11-29T03:48:14.168Z,29.23
2018-11-29T03:50:47.803Z,27.93
2018-11-29T03:53:21.408Z,28.37
2018-11-29T03:55:55.169Z,33.07
2018-11-29T03:58:28.772Z,26.93
2018-11-29T04:01:02.365Z,28.87
2018-11-29T04:03:35.977Z,34.70
2018-11-29T04:06:09.636Z,29.73
2018-11-29T04:08:43.195Z,25.57
2018-11-29T04:11:16.830Z,26.27
2018-11-29T04:13:50.445Z,29.97
2018-11-29T04:16:24.061Z,30.70
2018-11-29T04:18:57.667Z,30.53
2018-11-29T04:21:31.268Z,34.37
2018-11-29T04:24:05.128Z,27.67
2018-11-29T04:26:38.767Z,28.17
2018-11-29T04:29:12.340Z,26.20
2018-11-29T04:31:45.952Z,27.13
2018-11-29T04:34:19.528Z,31.30
2018-11-29T04:36:53.203Z,25.27
2018-11-29T04:39:26.844Z,33.53
2018-11-29T04:42:00.468Z,33.73
2018-11-29T04:44:34.170Z,28.43
2018-11-29T04:47:07.842Z,30.77
2018-11-29T04:49:41.434Z,29.97
2018-11-29T04:52:15.058Z,25.23
2018-11-29T04:54:48.619Z,27.50
2018-11-29T04:57:22.253Z,30.30
2018-11-29T04:59:55.826Z,22.23
2018-11-29T05:02:29.410Z,20.27
2018-11-29T05:05:03.012Z,25.87
2018-11-29T05:07:36.812Z,24.33
2018-11-29T05:10:11.814Z,24.93
2018-11-29T05:12:46.490Z,25.43
2018-11-29T05:15:20.090Z,27.97
2018-11-29T05:17:53.693Z,26.53
2018-11-29T05:20:27.323Z,28.47
2018-11-29T05:23:01.216Z,26.33
2018-11-29T05:25:34.822Z,26.37
2018-11-29T05:28:08.435Z,23.10
2018-11-29T05:30:42.015Z,27.63
2018-11-29T05:33:15.617Z,25.70
2018-11-29T05:35:49.239Z,26.80
2018-11-29T05:38:22.855Z,26.23
2018-11-29T05:40:56.511Z,25.97
2018-11-29T05:43:30.159Z,24.13
2018-11-29T05:46:03.743Z,27.97
2018-11-29T05:48:37.338Z,24.13
2018-11-29T05:51:11.828Z,30.93
2018-11-29T05:53:45.537Z,28.43
2018-11-29T05:56:19.134Z,21.43
2018-11-29T05:58:52.767Z,29.77
2018-11-29T06:01:29.698Z,30.33
2018-11-29T06:04:04.073Z,20.90
2018-11-29T06:06:37.659Z,25.87
2018-11-29T06:09:11.315Z,26.83
2018-11-29T06:11:44.938Z,28.60
2018-11-29T06:14:18.948Z,26.53
2018-11-29T06:16:52.564Z,22.70
2018-11-29T06:19:26.174Z,30.00
2018-11-29T06:21:59.770Z,25.83
2018-11-29T06:24:33.821Z,30.40
2018-11-29T06:27:07.751Z,31.90
2018-11-29T06:29:41.323Z,25.77
2018-11-29T06:32:14.922Z,33.03
2018-11-29T06:34:48.522Z,35.80
2018-11-29T06:37:22.093Z,30.97
2018-11-29T06:39:55.686Z,28.63
2018-11-29T06:42:29.262Z,25.90
2018-11-29T06:45:02.949Z,28.17
2018-11-29T06:47:36.956Z,27.23
2018-11-29T06:50:12.487Z,28.20
2018-11-29T06:52:47.144Z,33.87
2018-11-29T06:55:22.731Z,28.33
2018-11-29T06:57:56.339Z,31.43
2018-11-29T07:00:31.089Z,25.57
2018-11-29T07:03:05.289Z,30.83
2018-11-29T07:05:38.880Z,28.10
2018-11-29T07:08:12.458Z,29.10
2018-11-29T07:10:46.066Z,29.30
2018-11-29T07:13:19.696Z,31.63
2018-11-29T07:15:53.245Z,29.07
2018-11-29T07:18:26.824Z,30.37
2018-11-29T07:21:11.665Z,22.97
2018-11-29T07:23:45.328Z,25.40
2018-11-29T07:26:18.917Z,27.03
2018-11-29T07:28:52.557Z,24.97
2018-11-29T07:31:26.148Z,31.27
2018-11-29T07:33:59.760Z,26.83
2018-11-29T07:36:33.352Z,24.50
2018-11-29T07:39:09.456Z,28.20
2018-11-29T07:41:43.298Z,27.87
2018-11-29T07:44:16.928Z,29.40
2018-11-29T07:46:50.514Z,33.97
2018-11-29T07:49:24.114Z,26.37
2018-11-29T07:51:57.691Z,29.40
2018-11-29T07:54:31.295Z,30.60
2018-11-29T07:57:04.953Z,29.17
2018-11-29T07:59:38.552Z,21.97
2018-11-29T08:02:12.128Z,23.57
2018-11-29T08:04:45.760Z,29.23
2018-11-29T08:07:19.408Z,22.27
2018-11-29T08:09:53.007Z,26.93
2018-11-29T08:12:26.656Z,29.30
2018-11-29T08:15:00.272Z,25.37
2018-11-29T08:17:34.157Z,27.73
2018-11-29T08:20:13.077Z,26.90
2018-11-29T08:22:46.723Z,26.90
2018-11-29T08:25:20.403Z,27.67
2018-11-29T08:27:53.969Z,27.63
2018-11-29T08:30:27.556Z,29.97
2018-11-29T08:33:01.427Z,31.33
2018-11-29T08:35:35.013Z,31.63
2018-11-29T08:38:08.932Z,34.07
2018-11-29T08:40:43.054Z,33.30
2018-11-29T08:43:16.619Z,32.83
2018-11-29T08:45:50.240Z,25.00
2018-11-29T08:48:23.808Z,25.33
2018-11-29T08:50:57.414Z,29.57
2018-11-29T08:53:31.001Z,33.03
2018-11-29T08:56:05.275Z,25.87
2018-11-29T08:58:38.893Z,25.03
2018-11-29T09:01:12.520Z,29.47
2018-11-29T09:03:46.095Z,24.37
2018-11-29T09:06:19.668Z,21.70
2018-11-29T09:08:53.628Z,25.20
2018-11-29T09:11:27.201Z,25.10
2018-11-29T09:14:00.840Z,23.77
2018-11-29T09:16:34.469Z,28.13
2018-11-29T09:19:08.126Z,22.10
2018-11-29T09:21:41.730Z,19.77
2018-11-29T09:24:15.287Z,22.23
2018-11-29T09:26:48.884Z,21.67
2018-11-29T09:29:22.465Z,25.10
2018-11-29T09:31:56.088Z,27.07
2018-11-29T09:34:29.671Z,26.00
2018-11-29T09:37:03.288Z,22.03
2018-11-29T09:39:36.895Z,28.33
2018-11-29T09:42:10.491Z,25.67
2018-11-29T09:44:44.082Z,19.93
2018-11-29T09:47:17.685Z,20.47
2018-11-29T09:49:51.238Z,20.90
2018-11-29T09:52:25.275Z,31.63
2018-11-29T09:54:58.886Z,27.30
2018-11-29T09:57:32.768Z,27.23
2018-11-29T10:00:11.375Z,26.33
2018-11-29T10:02:47.867Z,25.07
2018-11-29T10:05:21.474Z,25.57
2018-11-29T10:07:55.114Z,22.93
2018-11-29T10:10:28.804Z,22.93
2018-11-29T10:13:02.363Z,26.03
2018-11-29T10:15:35.979Z,27.03
2018-11-29T10:18:10.902Z,28.57
2018-11-29T10:20:44.491Z,24.93
2018-11-29T10:23:18.371Z,21.90
2018-11-29T10:25:51.951Z,24.60
2018-11-29T10:28:25.530Z,23.30
2018-11-29T10:31:01.050Z,25.23
2018-11-29T10:33:34.667Z,22.90
2018-11-29T10:36:08.247Z,23.67
2018-11-29T10:38:42.082Z,26.87
2018-11-29T10:41:15.714Z,24.20
2018-11-29T10:43:49.295Z,22.50
2018-11-29T10:46:22.882Z,21.53
2018-11-29T10:48:56.510Z,23.53
2018-11-29T10:51:30.266Z,22.93
2018-11-29T10:54:03.920Z,21.03
2018-11-29T10:56:37.502Z,22.83
2018-11-29T10:59:11.068Z,21.03
2018-11-29T11:01:44.698Z,21.70
2018-11-29T11:04:18.290Z,19.37
2018-11-29T11:06:51.845Z,21.90
2018-11-29T11:09:25.498Z,25.07
2018-11-29T11:11:59.127Z,18.07
2018-11-29T11:14:32.705Z,18.43
2018-11-29T11:17:06.650Z,23.33
2018-11-29T11:19:40.290Z,19.73
2018-11-29T11:22:13.881Z,22.97
2018-11-29T11:24:47.530Z,19.80
2018-11-29T11:27:21.118Z,24.10
2018-11-29T11:29:54.742Z,27.43
2018-11-29T11:32:29.134Z,26.40
2018-11-29T11:35:02.766Z,26.37
2018-11-29T11:37:36.387Z,26.60
2018-11-29T11:40:13.521Z,23.27
2018-11-29T11:42:47.543Z,27.83
2018-11-29T11:45:22.115Z,20.63
2018-11-29T11:47:55.704Z,25.73
2018-11-29T11:50:29.315Z,24.63
2018-11-29T11:53:02.929Z,23.23
2018-11-29T11:55:37.141Z,22.67
2018-11-29T11:58:10.725Z,25.67
2018-11-29T12:00:44.309Z,25.13
2018-11-29T12:03:18.075Z,24.30
2018-11-29T12:05:51.701Z,17.13
2018-11-29T12:08:25.292Z,23.50
2018-11-29T12:10:58.889Z,23.43
2018-11-29T12:13:32.489Z,23.20
2018-11-29T12:16:06.149Z,19.93
2018-11-29T12:18:39.721Z,20.10
2018-11-29T12:21:13.329Z,23.77
2018-11-29T12:23:46.912Z,25.80
2018-11-29T12:26:20.542Z,20.03
2018-11-29T12:28:54.125Z,24.87
2018-11-29T12:31:27.724Z,21.37
2018-11-29T12:34:01.348Z,23.83
2018-11-29T12:36:34.984Z,19.97
2018-11-29T12:39:10.110Z,18.43
2018-11-29T12:41:43.720Z,22.07
2018-11-29T12:44:17.530Z,28.10
2018-11-29T12:46:51.155Z,23.33
2018-11-29T12:49:24.717Z,20.30
2018-11-29T12:51:58.661Z,24.37
2018-11-29T12:54:32.247Z,18.97
2018-11-29T12:57:06.172Z,23.07
2018-11-29T12:59:39.792Z,21.07
2018-11-29T13:02:13.420Z,21.47
2018-11-29T13:04:47.011Z,21.93
2018-11-29T13:07:20.904Z,24.33
2018-11-29T13:09:54.487Z,21.90
2018-11-29T13:12:28.514Z,24.67
2018-11-29T13:15:02.157Z,21.33
2018-11-29T13:17:35.727Z,24.50
2018-11-29T13:20:12.941Z,23.33
2018-11-29T13:22:46.516Z,21.10
2018-11-29T13:25:21.476Z,25.03
2018-11-29T13:27:55.095Z,18.60
2018-11-29T13:30:28.678Z,22.00
2018-11-29T13:33:02.306Z,23.03
2018-11-29T13:35:36.046Z,22.10
2018-11-29T13:38:14.915Z,25.70
2018-11-29T13:40:49.611Z,20.10
2018-11-29T13:43:23.227Z,22.67
2018-11-29T13:45:56.781Z,25.30
2018-11-29T13:48:30.394Z,21.80
2018-11-29T13:51:04.404Z,25.33
2018-11-29T13:53:38.082Z,22.10
2018-11-29T13:56:11.653Z,21.73
2018-11-29T13:58:45.248Z,20.27
2018-11-29T14:01:19.195Z,19.10
2018-11-29T14:03:52.886Z,22.83
2018-11-29T14:06:26.475Z,23.10
2018-11-29T14:09:00.062Z,27.27
2018-11-29T14:11:33.626Z,22.37
2018-11-29T14:14:07.985Z,23.33
2018-11-29T14:16:40.887Z,27.13
2018-11-29T14:19:14.534Z,22.20
2018-11-29T14:21:51.222Z,27.13
2018-11-29T14:24:21.752Z,27.27
2018-11-29T14:26:55.326Z,28.37
2018-11-29T14:29:28.942Z,23.47
2018-11-29T14:32:02.536Z,33.97
2018-11-29T14:34:36.434Z,25.67
2018-11-29T14:37:10.008Z,24.20
2018-11-29T14:39:43.592Z,24.07
2018-11-29T14:42:17.181Z,27.23
2018-11-29T14:44:50.775Z,24.57
2018-11-29T14:47:24.330Z,20.03
2018-11-29T14:49:57.936Z,21.80
2018-11-29T14:52:31.516Z,17.43
2018-11-29T14:57:39.575Z,24.73
2018-11-29T15:00:13.560Z,20.87
2018-11-29T15:02:47.147Z,24.23
2018-11-29T15:05:23.751Z,20.50
2018-11-29T15:07:57.364Z,23.27
2018-11-29T15:10:31.033Z,18.97
2018-11-29T15:13:04.970Z,20.40
2018-11-29T15:15:39.031Z,25.53
2018-11-29T15:18:12.688Z,25.30
2018-11-29T15:20:48.209Z,28.93
2018-11-29T15:23:21.810Z,18.83
2018-11-29T15:25:55.397Z,18.77
2018-11-29T15:28:28.963Z,22.53
2018-11-29T15:31:02.580Z,22.93
2018-11-29T15:33:36.181Z,19.50
2018-11-29T15:36:09.767Z,17.77
2018-11-29T15:38:43.349Z,20.53
2018-11-29T15:41:18.238Z,22.33
2018-11-29T15:43:50.639Z,24.40
2018-11-29T15:46:24.235Z,22.33
2018-11-29T15:49:00.228Z,30.27
2018-11-29T15:51:33.175Z,19.67
2018-11-29T15:54:06.957Z,25.33
2018-11-29T15:56:40.578Z,21.93
2018-11-29T15:59:14.161Z,22.77
2018-11-29T16:01:47.819Z,23.23
2018-11-29T16:04:21.413Z,15.73
2018-11-29T16:06:55.017Z,30.90
2018-11-29T16:09:28.582Z,24.83
2018-11-29T16:12:02.193Z,24.67
2018-11-29T16:14:35.802Z,25.10
2018-11-29T16:17:09.415Z,23.17
2018-11-29T16:19:42.983Z,20.87
2018-11-29T16:22:16.665Z,22.03
2018-11-29T16:24:50.275Z,18.77
2018-11-29T16:27:23.866Z,19.00
2018-11-29T16:29:57.404Z,18.70
2018-11-29T16:32:31.026Z,18.43
2018-11-29T16:35:05.096Z,31.03
2018-11-29T16:37:38.704Z,19.40
2018-11-29T16:40:12.296Z,24.63
2018-11-29T16:42:45.892Z,21.37
2018-11-29T16:45:19.507Z,43.17
2018-11-29T16:47:53.141Z,31.30
2018-11-29T16:50:26.701Z,22.87
2018-11-29T16:53:00.340Z,16.47
2018-11-29T16:55:33.874Z,15.27
2018-11-29T16:58:10.370Z,18.90
2018-11-29T17:00:43.976Z,19.93
2018-11-29T17:03:17.600Z,20.63
2018-11-29T17:05:51.201Z,18.90
2018-11-29T17:08:24.837Z,25.63
2018-11-29T17:10:58.458Z,21.47
2018-11-29T17:13:32.329Z,17.20
2018-11-29T17:16:06.440Z,21.67
2018-11-29T17:18:40.117Z,19.93
2018-11-29T17:21:13.716Z,17.97
2018-11-29T17:23:47.379Z,23.13
2018-11-29T17:26:21.023Z,21.40
2018-11-29T17:28:54.652Z,22.03
2018-11-29T17:31:28.224Z,13.33
2018-11-29T17:34:01.867Z,19.90
2018-11-29T17:36:35.415Z,16.73
2018-11-29T17:39:09.751Z,19.07
2018-11-29T17:41:43.384Z,19.50
2018-11-29T17:44:17.135Z,18.83
2018-11-29T17:46:50.736Z,15.03
2018-11-29T17:49:24.363Z,20.23
2018-11-29T17:51:57.976Z,21.93
2018-11-29T17:54:31.584Z,20.50
2018-11-29T17:57:05.328Z,20.10
2018-11-29T17:59:38.934Z,19.63
2018-11-29T18:02:12.564Z,20.20
2018-11-29T18:04:46.115Z,22.10
2018-11-29T18:07:19.743Z,21.93
2018-11-29T18:09:53.347Z,20.57
2018-11-29T18:12:26.967Z,26.70
2018-11-29T18:15:00.537Z,18.13
2018-11-29T18:17:34.134Z,17.63
2018-11-29T18:20:09.561Z,19.27
2018-11-29T18:22:43.234Z,19.23
2018-11-29T18:25:17.527Z,17.40
2018-11-29T18:27:52.414Z,21.53
2018-11-29T18:30:26.117Z,20.23
2018-11-29T18:32:59.708Z,19.47
2018-11-29T18:35:33.267Z,19.83
2018-11-29T18:38:07.771Z,17.87
2018-11-29T18:40:41.427Z,19.93
2018-11-29T18:43:15.040Z,21.20
2018-11-29T18:45:48.873Z,21.47
2018-11-29T18:48:22.469Z,18.63
2018-11-29T18:50:56.109Z,16.33
2018-11-29T18:53:29.782Z,15.70
2018-11-29T18:56:03.373Z,21.30
2018-11-29T18:58:36.978Z,20.40
2018-11-29T19:01:10.562Z,17.30
2018-11-29T19:03:44.143Z,22.30
2018-11-29T19:06:17.729Z,17.70
2018-11-29T19:08:51.382Z,14.77
2018-11-29T19:11:24.947Z,21.30
2018-11-29T19:13:58.549Z,15.47
2018-11-29T19:16:32.169Z,19.80
2018-11-29T19:19:06.049Z,17.77
2018-11-29T19:21:39.670Z,18.27
2018-11-29T19:24:13.286Z,18.43
2018-11-29T19:26:46.896Z,19.57
2018-11-29T19:29:20.559Z,19.17
2018-11-29T19:31:54.138Z,21.37
2018-11-29T19:34:27.741Z,17.93
2018-11-29T19:37:01.448Z,19.07
2018-11-29T19:39:35.049Z,17.50
2018-11-29T19:42:08.612Z,18.53
2018-11-29T19:44:42.223Z,17.33
2018-11-29T19:47:15.798Z,24.03
2018-11-29T19:49:49.396Z,15.13
2018-11-29T19:52:23.016Z,12.80
2018-11-29T19:54:56.659Z,17.73
2018-11-29T19:57:31.129Z,22.63
2018-11-29T20:00:06.777Z,17.20
2018-11-29T20:02:40.845Z,18.57
2018-11-29T20:05:15.176Z,22.33
2018-11-29T20:07:48.793Z,19.20
2018-11-29T20:10:23.090Z,15.83
2018-11-29T20:13:01.794Z,16.00
2018-11-29T20:15:37.418Z,19.73
2018-11-29T20:18:12.036Z,20.20
2018-11-29T20:20:45.634Z,17.27
2018-11-29T20:23:19.205Z,22.40
2018-11-29T20:25:52.906Z,19.80
2018-11-29T20:28:26.517Z,18.93
2018-11-29T20:31:00.154Z,18.40
2018-11-29T20:33:33.715Z,22.67
2018-11-29T20:36:07.667Z,21.03
2018-11-29T20:38:41.245Z,19.33
2018-11-29T20:41:14.893Z,20.83
2018-11-29T20:43:48.465Z,16.77
2018-11-29T20:46:22.095Z,21.40
2018-11-29T20:48:55.700Z,16.00
2018-11-29T20:51:29.400Z,16.87
2018-11-29T20:54:03.036Z,18.57
2018-11-29T20:56:36.664Z,17.90
2018-11-29T20:59:10.257Z,23.40
2018-11-29T21:01:43.864Z,19.53
2018-11-29T21:04:17.497Z,20.03
2018-11-29T21:06:51.078Z,21.50
2018-11-29T21:09:24.696Z,18.17
2018-11-29T21:11:58.506Z,18.47
2018-11-29T21:14:32.240Z,21.43
2018-11-29T21:17:06.035Z,19.23
2018-11-29T21:19:39.696Z,19.33
2018-11-29T21:22:13.264Z,14.60
2018-11-29T21:24:46.903Z,18.03
2018-11-29T21:27:20.471Z,19.17
2018-11-29T21:29:54.101Z,19.60
2018-11-29T21:32:27.953Z,18.70
2018-11-29T21:35:01.589Z,20.77
2018-11-29T21:37:35.187Z,20.23
2018-11-29T21:40:15.370Z,22.10
2018-11-29T21:42:48.975Z,19.70
2018-11-29T21:45:22.579Z,21.23
2018-11-29T21:47:56.208Z,23.07
2018-11-29T21:50:29.798Z,21.20
2018-11-29T21:53:03.431Z,19.13
2018-11-29T21:55:37.100Z,23.87
2018-11-29T21:58:10.731Z,23.20
2018-11-29T22:00:44.329Z,21.60
2018-11-29T22:03:17.902Z,20.83
2018-11-29T22:05:51.511Z,21.73
2018-11-29T22:08:25.434Z,19.77
2018-11-29T22:10:59.022Z,22.17
2018-11-29T22:13:32.688Z,21.77
2018-11-29T22:16:06.314Z,21.17
2018-11-29T22:18:39.894Z,22.63
2018-11-29T22:21:13.543Z,21.57
2018-11-29T22:23:47.120Z,24.03
2018-11-29T22:26:20.385Z,19.43
2018-11-29T22:28:53.969Z,18.97
2018-11-29T22:31:27.937Z,15.70
2018-11-29T22:34:01.523Z,16.57
2018-11-29T22:36:35.189Z,17.67
2018-11-29T22:39:10.310Z,18.70
2018-11-29T22:41:43.925Z,19.13
2018-11-29T22:44:17.534Z,16.40
2018-11-29T22:46:51.131Z,19.67
2018-11-29T22:49:24.695Z,17.80
2018-11-29T22:51:58.662Z,17.77
2018-11-29T22:54:32.245Z,20.00
2018-11-29T22:57:06.443Z,18.83
2018-11-29T22:59:40.055Z,15.83
2018-11-29T23:02:13.661Z,20.50
2018-11-29T23:04:47.241Z,17.13
2018-11-29T23:07:20.849Z,13.13
2018-11-29T23:09:54.564Z,21.67
2018-11-29T23:12:28.185Z,22.57
2018-11-29T23:15:02.274Z,15.43
2018-11-29T23:17:35.897Z,20.80
2018-11-29T23:20:11.669Z,16.43
2018-11-29T23:22:45.321Z,16.83
2018-11-29T23:25:18.899Z,15.37
2018-11-29T23:27:52.500Z,17.57
2018-11-29T23:30:26.083Z,15.43
2018-11-29T23:32:59.719Z,17.10
2018-11-29T23:35:33.319Z,21.83
2018-11-29T23:38:06.980Z,17.60
2018-11-29T23:40:40.598Z,14.03
2018-11-29T23:43:14.175Z,18.87
2018-11-29T23:45:47.761Z,16.33
2018-11-29T23:48:21.337Z,17.07
2018-11-29T23:50:54.913Z,14.97
2018-11-29T23:53:28.545Z,17.23
2018-11-29T23:56:02.149Z,17.17
2018-11-29T23:58:35.794Z,17.77
